Time;durP1;ratioP1;P1;durP2;ratioP2;P2;SDS_P1;SDS_P2;PMS_P1;PMS_P2;Temp;Humidity;BMP_temperature;BMP_pressure;BME280_temperature;BME280_humidity;BME280_pressure;Samples;Min_cycle;Max_cycle;Signal;HPM_P1;HPM_P2
2022/07/04 00:00:16;;;;;;;10.32;9.32;;;;;;;22.10;60.41;100452.19;5038376;28;20095;-75
2022/07/04 00:02:44;;;;;;;10.75;9.25;;;;;;;22.08;60.17;100461.06;5033234;28;20081;-73
2022/07/04 00:05:11;;;;;;;9.82;9.02;;;;;;;22.06;60.46;100466.31;5049833;28;20065;-75
2022/07/04 00:07:48;;;;;;;10.10;8.88;;;;;;;22.06;60.04;100459.81;5042228;28;20503;-75
2022/07/04 00:10:21;;;;;;;9.98;9.07;;;;;;;21.94;60.49;100450.09;5036689;28;20139;-74
2022/07/04 00:12:48;;;;;;;11.98;9.20;;;;;;;21.92;60.21;100446.00;5036755;28;20061;-70
2022/07/04 00:15:15;;;;;;;12.32;9.25;;;;;;;21.94;60.00;100441.56;5039881;28;20483;-80
2022/07/04 00:17:42;;;;;;;14.20;8.57;;;;;;;22.00;60.51;100465.72;5036085;28;20468;-80
2022/07/04 00:20:10;;;;;;;10.32;9.00;;;;;;;21.95;60.47;100446.09;5043354;28;20065;-80
2022/07/04 00:22:37;;;;;;;10.55;8.45;;;;;;;21.93;60.12;100454.16;5049933;28;20507;-81
2022/07/04 00:25:06;;;;;;;9.27;8.23;;;;;;;21.88;60.20;100445.03;5045099;28;20050;-81
2022/07/04 00:27:33;;;;;;;9.35;8.45;;;;;;;21.88;60.27;100462.94;5038378;28;20081;-80
2022/07/04 00:29:59;;;;;;;9.95;8.77;;;;;;;21.81;60.34;100457.00;5040981;28;20085;-81
2022/07/04 00:32:26;;;;;;;9.63;8.68;;;;;;;21.57;60.60;100428.66;5048923;28;20087;-81
2022/07/04 00:34:53;;;;;;;11.25;8.80;;;;;;;21.64;60.91;100452.47;5040598;28;20077;-81
2022/07/04 00:37:20;;;;;;;9.57;8.57;;;;;;;21.68;60.69;100458.25;5044748;28;20137;-80
2022/07/04 00:39:47;;;;;;;10.75;9.07;;;;;;;21.69;60.95;100471.25;5046860;28;20144;-81
2022/07/04 00:42:14;;;;;;;10.35;9.35;;;;;;;21.46;61.13;100434.81;5041422;28;20143;-80
2022/07/04 00:44:40;;;;;;;10.35;8.65;;;;;;;21.50;60.91;100454.81;5042533;28;20523;-81
2022/07/04 00:47:08;;;;;;;10.90;8.55;;;;;;;21.37;61.20;100434.13;5054434;28;20048;-81
2022/07/04 00:49:35;;;;;;;14.75;9.20;;;;;;;21.53;61.18;100471.97;5067293;28;20578;-79
2022/07/04 00:52:02;;;;;;;9.70;8.70;;;;;;;21.49;61.53;100464.53;5056240;28;20061;-76
2022/07/04 00:54:31;;;;;;;15.50;9.25;;;;;;;21.47;61.37;100453.53;5069836;28;20053;-75
2022/07/04 00:57:00;;;;;;;10.20;9.00;;;;;;;21.39;61.54;100445.97;5073923;28;20049;-73
2022/07/04 00:59:27;;;;;;;9.50;8.65;;;;;;;21.44;61.66;100459.13;5035792;28;20419;-73
2022/07/04 01:01:54;;;;;;;10.48;9.45;;;;;;;21.43;61.80;100469.63;5074136;28;20110;-75
2022/07/04 01:04:22;;;;;;;11.10;10.10;;;;;;;21.38;61.97;100452.84;5044389;28;20503;-73
2022/07/04 01:06:49;;;;;;;13.93;8.93;;;;;;;21.41;61.50;100463.47;5040560;28;20134;-72
2022/07/04 01:09:16;;;;;;;12.93;9.73;;;;;;;21.11;61.66;100408.91;5040993;28;20050;-73
2022/07/04 01:11:43;;;;;;;14.48;9.75;;;;;;;21.24;61.84;100435.28;5035386;28;20132;-71
2022/07/04 01:14:10;;;;;;;11.60;9.50;;;;;;;21.36;62.07;100451.53;5047125;28;20576;-74
2022/07/04 01:16:37;;;;;;;23.25;11.57;;;;;;;21.41;61.90;100449.28;5039230;28;20592;-72
2022/07/04 01:19:04;;;;;;;20.63;10.65;;;;;;;21.44;62.19;100448.56;5036666;28;20064;-69
2022/07/04 01:21:32;;;;;;;12.48;10.70;;;;;;;21.42;62.09;100450.09;5035014;28;20049;-71
2022/07/04 01:23:59;;;;;;;10.52;9.68;;;;;;;21.39;62.05;100448.78;5036062;28;20049;-68
2022/07/04 01:26:28;;;;;;;12.90;9.73;;;;;;;21.47;61.91;100441.31;5042075;28;20049;-69
2022/07/04 01:28:55;;;;;;;17.50;10.48;;;;;;;21.12;61.97;100396.34;5053950;28;20077;-70
2022/07/04 01:31:24;;;;;;;12.75;9.10;;;;;;;21.27;62.13;100426.88;5035569;28;20045;-69
2022/07/04 01:33:51;;;;;;;11.43;10.05;;;;;;;21.43;62.47;100446.88;5036403;28;20053;-68
2022/07/04 01:36:18;;;;;;;15.48;10.35;;;;;;;21.33;61.90;100430.28;5037059;28;20136;-69
2022/07/04 01:38:45;;;;;;;12.55;10.07;;;;;;;21.49;61.77;100436.13;5047037;28;20107;-68
2022/07/04 01:41:12;;;;;;;14.93;11.15;;;;;;;21.53;61.96;100440.72;5035679;28;20088;-70
2022/07/04 01:43:39;;;;;;;12.23;10.38;;;;;;;21.50;61.63;100432.94;5041383;28;20127;-69
2022/07/04 01:46:05;;;;;;;14.48;10.02;;;;;;;21.43;61.89;100426.19;5041365;28;20459;-70
2022/07/04 01:48:33;;;;;;;17.98;10.65;;;;;;;21.47;62.09;100447.00;5044215;28;20051;-71
2022/07/04 01:50:59;;;;;;;13.93;10.63;;;;;;;21.43;62.20;100438.38;5035447;28;20073;-71
2022/07/04 01:53:26;;;;;;;21.40;11.20;;;;;;;21.42;61.86;100433.88;5050326;28;20056;-72
2022/07/04 01:55:53;;;;;;;14.73;12.07;;;;;;;21.29;62.17;100418.00;5035940;28;20073;-71
2022/07/04 01:58:20;;;;;;;16.63;12.52;;;;;;;20.97;62.12;100357.34;5034484;28;20041;-72
2022/07/04 02:03:32;;;;;;;13.60;10.70;;;;;;;21.37;62.28;100431.28;5035160;28;20468;-71
2022/07/04 02:05:59;;;;;;;21.95;11.43;;;;;;;21.24;62.02;100398.38;5048053;28;20464;-75
2022/07/04 02:09:14;;;;;;;16.08;10.60;;;;;;;21.43;61.92;100435.53;5035144;28;20132;-72
2022/07/04 02:11:13;;;;;;;17.50;10.77;;;;;;;21.48;62.07;100440.97;5045082;28;20076;-72
2022/07/04 02:13:39;;;;;;;12.50;10.95;;;;;;;21.49;62.10;100434.09;5054669;28;20136;-70
2022/07/04 02:16:06;;;;;;;15.23;10.13;;;;;;;21.45;62.33;100421.81;5037645;28;20397;-72
2022/07/04 02:18:33;;;;;;;12.88;10.02;;;;;;;21.55;62.46;100431.84;5043613;28;20439;-71
2022/07/04 02:21:01;;;;;;;14.60;10.43;;;;;;;21.40;62.49;100399.34;5053041;28;20049;-70
2022/07/04 02:23:28;;;;;;;17.52;10.55;;;;;;;21.51;62.29;100436.59;5040909;28;20114;-71
2022/07/04 02:25:54;;;;;;;11.07;10.07;;;;;;;21.60;62.45;100439.31;5049025;28;20060;-71
2022/07/04 02:28:21;;;;;;;14.13;10.55;;;;;;;21.31;62.16;100387.25;5041710;28;20570;-71
2022/07/04 02:30:48;;;;;;;14.57;10.30;;;;;;;21.61;62.36;100441.81;5045366;28;20136;-72
2022/07/04 02:33:15;;;;;;;14.35;10.55;;;;;;;21.59;62.31;100441.31;5037941;28;20049;-72
2022/07/04 02:35:42;;;;;;;11.20;10.13;;;;;;;21.61;61.98;100440.97;5034058;28;20136;-71
2022/07/04 02:38:08;;;;;;;11.45;10.25;;;;;;;21.25;62.13;100388.66;5049307;28;20470;-72
2022/07/04 02:40:35;;;;;;;10.60;9.52;;;;;;;21.49;62.35;100421.91;5048684;28;20136;-70
2022/07/04 02:43:02;;;;;;;12.02;10.60;;;;;;;21.53;62.26;100440.72;5034726;28;20508;-70
2022/07/04 02:45:29;;;;;;;12.40;10.02;;;;;;;21.52;62.44;100433.41;5033972;28;20087;-71
2022/07/04 02:47:56;;;;;;;14.95;10.15;;;;;;;21.47;62.59;100436.50;5035008;28;20073;-70
2022/07/04 02:50:22;;;;;;;12.57;9.43;;;;;;;21.41;62.84;100432.22;5034678;28;20486;-71
2022/07/04 02:52:49;;;;;;;15.38;9.43;;;;;;;21.39;62.69;100430.94;5038236;28;20056;-70
2022/07/04 02:55:16;;;;;;;10.48;9.45;;;;;;;21.35;62.73;100433.66;5037301;28;20539;-71
2022/07/04 02:57:43;;;;;;;11.43;10.27;;;;;;;21.35;62.67;100427.97;5042471;28;20596;-71
2022/07/04 03:00:10;;;;;;;11.65;10.18;;;;;;;21.22;62.86;100404.41;5036474;28;20091;-72
2022/07/04 03:02:37;;;;;;;12.18;10.18;;;;;;;21.22;62.87;100412.91;5044188;28;20057;-72
2022/07/04 03:05:04;;;;;;;10.10;9.10;;;;;;;21.34;62.64;100422.63;5037877;28;20481;-72
2022/07/04 03:07:31;;;;;;;14.70;9.55;;;;;;;21.27;62.87;100423.22;5037181;28;20140;-69
2022/07/04 03:09:58;;;;;;;11.18;9.48;;;;;;;21.27;63.04;100426.06;5042036;28;20139;-73
2022/07/04 03:12:25;;;;;;;13.38;11.63;;;;;;;21.18;62.80;100405.47;5041291;28;20141;-72
2022/07/04 03:14:53;;;;;;;13.80;12.55;;;;;;;21.20;62.65;100405.97;5046770;28;20583;-72
2022/07/04 03:17:21;;;;;;;13.63;11.70;;;;;;;21.07;63.00;100396.59;5044616;28;20575;-71
2022/07/04 03:19:48;;;;;;;14.25;10.20;;;;;;;21.10;62.93;100400.75;5042539;28;20072;-70
2022/07/04 03:22:14;;;;;;;14.45;10.65;;;;;;;21.15;63.25;100414.69;5044218;28;20088;-71
2022/07/04 03:24:41;;;;;;;11.98;10.18;;;;;;;21.09;63.40;100402.75;5034620;28;20050;-70
2022/07/04 03:27:09;;;;;;;13.38;9.68;;;;;;;20.96;63.14;100381.25;5042807;28;20048;-70
2022/07/04 03:29:35;;;;;;;11.93;10.52;;;;;;;21.00;63.53;100402.06;5036348;28;20132;-71
2022/07/04 03:32:03;;;;;;;13.90;10.98;;;;;;;20.77;63.19;100373.31;5035102;28;20136;-71
2022/07/04 03:34:30;;;;;;;11.32;9.95;;;;;;;21.00;63.11;100422.75;5043188;28;20147;-73
2022/07/04 03:36:57;;;;;;;16.88;10.48;;;;;;;20.94;63.48;100411.97;5052559;28;20072;-71
2022/07/04 03:39:24;;;;;;;14.70;11.00;;;;;;;20.94;63.48;100412.81;5037087;28;20132;-72
2022/07/04 03:41:50;;;;;;;12.25;10.98;;;;;;;20.81;63.29;100392.09;5035831;28;20056;-71
2022/07/04 03:44:17;;;;;;;12.85;10.60;;;;;;;21.02;63.24;100436.56;5038168;28;20136;-70
2022/07/04 03:46:44;;;;;;;14.25;11.05;;;;;;;20.95;63.69;100420.13;5041615;28;20131;-69
2022/07/04 03:49:11;;;;;;;16.58;11.10;;;;;;;20.85;63.60;100408.41;5042139;28;20472;-69
2022/07/04 03:51:38;;;;;;;11.88;10.30;;;;;;;20.80;63.61;100406.66;5046150;28;20093;-71
2022/07/04 03:54:05;;;;;;;12.38;11.18;;;;;;;20.92;63.52;100437.03;5042843;28;20056;-72
2022/07/04 03:56:31;;;;;;;12.18;10.93;;;;;;;20.88;63.72;100430.41;5043063;28;20143;-71
2022/07/04 03:58:58;;;;;;;15.18;12.10;;;;;;;20.89;63.95;100430.09;5044061;28;20136;-71
2022/07/04 04:01:25;;;;;;;15.57;12.05;;;;;;;20.91;64.01;100432.56;5045970;28;20052;-72
2022/07/04 04:06:38;;;;;;;17.80;11.88;;;;;;;20.94;64.09;100440.38;5039718;28;20507;-69
2022/07/04 04:09:04;;;;;;;14.77;11.73;;;;;;;20.90;64.06;100439.44;5031823;28;20128;-69
2022/07/04 04:11:35;;;;;;;26.70;13.15;;;;;;;20.87;64.06;100432.44;5039829;28;20049;-70
2022/07/04 04:14:02;;;;;;;22.88;14.68;;;;;;;20.93;64.01;100453.75;5040978;28;20111;-69
2022/07/04 04:16:29;;;;;;;19.60;13.25;;;;;;;20.92;64.09;100452.09;5035718;28;20144;-70
2022/07/04 04:18:56;;;;;;;26.85;16.30;;;;;;;20.90;63.87;100462.97;5037140;28;20045;-68
2022/07/04 04:21:23;;;;;;;24.75;14.80;;;;;;;20.93;64.15;100467.09;5040124;28;20132;-68
2022/07/04 04:23:50;;;;;;;26.00;14.55;;;;;;;20.91;64.27;100473.13;5042383;28;20088;-68
2022/07/04 04:26:17;;;;;;;20.63;14.32;;;;;;;20.87;64.20;100471.34;5050468;28;20132;-72
2022/07/04 04:28:44;;;;;;;25.33;15.80;;;;;;;20.88;64.42;100476.66;5045549;28;20053;-70
2022/07/04 04:31:11;;;;;;;23.27;18.63;;;;;;;20.81;64.11;100480.06;5041393;28;20139;-70
2022/07/04 04:33:38;;;;;;;22.67;15.20;;;;;;;20.86;64.29;100490.41;5049666;28;20067;-69
2022/07/04 04:36:05;;;;;;;27.33;17.45;;;;;;;20.79;64.04;100467.44;5041945;28;20182;-68
2022/07/04 04:38:32;;;;;;;28.25;16.23;;;;;;;20.76;64.08;100462.47;5036558;28;20583;-70
2022/07/04 04:40:58;;;;;;;24.95;16.50;;;;;;;20.71;64.01;100457.81;5042778;28;20064;-70
2022/07/04 04:43:25;;;;;;;26.05;17.25;;;;;;;20.77;64.19;100466.94;5048974;28;20076;-70
2022/07/04 04:45:53;;;;;;;23.55;15.70;;;;;;;20.50;64.27;100423.84;5031177;28;20049;-71
2022/07/04 04:48:19;;;;;;;23.70;16.05;;;;;;;20.79;63.83;100479.63;5049864;28;20045;-69
2022/07/04 04:50:46;;;;;;;26.85;14.98;;;;;;;20.72;64.00;100470.03;5041766;28;20049;-70
2022/07/04 04:53:13;;;;;;;27.27;15.88;;;;;;;20.79;63.99;100478.78;5040556;28;20136;-70
2022/07/04 04:55:40;;;;;;;30.55;16.70;;;;;;;20.74;63.93;100459.13;5043207;28;20152;-71
2022/07/04 04:58:07;;;;;;;31.42;16.02;;;;;;;20.73;64.33;100481.03;5051801;28;20135;-71
2022/07/04 05:00:34;;;;;;;28.85;15.82;;;;;;;20.55;64.18;100454.84;5042468;28;20136;-71
2022/07/04 05:03:01;;;;;;;23.52;15.10;;;;;;;20.70;64.23;100472.38;5043953;28;20523;-71
2022/07/04 05:05:28;;;;;;;24.15;15.75;;;;;;;20.67;64.12;100476.75;5040079;28;20452;-70
2022/07/04 05:07:55;;;;;;;19.80;14.20;;;;;;;20.48;64.17;100448.88;5043964;28;20460;-71
2022/07/04 05:10:22;;;;;;;21.00;15.38;;;;;;;20.58;64.38;100474.00;5046384;28;20085;-73
2022/07/04 05:12:49;;;;;;;24.70;15.50;;;;;;;20.41;64.45;100457.16;5036072;28;20077;-73
2022/07/04 05:15:16;;;;;;;20.30;15.63;;;;;;;20.44;64.60;100453.59;5042073;28;20131;-72
2022/07/04 05:17:43;;;;;;;19.98;14.77;;;;;;;20.53;64.81;100473.41;5044423;28;20520;-72
2022/07/04 05:20:10;;;;;;;24.98;16.50;;;;;;;20.40;64.76;100449.78;5043603;28;20077;-72
2022/07/04 05:22:37;;;;;;;23.88;15.27;;;;;;;20.54;64.75;100472.22;5044465;28;20140;-69
2022/07/04 05:25:04;;;;;;;20.75;15.15;;;;;;;20.45;64.84;100452.44;5044025;28;20055;-70
2022/07/04 05:27:31;;;;;;;24.63;17.15;;;;;;;20.43;64.68;100454.78;5045545;28;20136;-72
2022/07/04 05:29:58;;;;;;;25.58;17.33;;;;;;;20.16;64.97;100416.50;5042839;28;20053;-73
2022/07/04 05:32:26;;;;;;;24.00;16.88;;;;;;;20.31;64.88;100449.06;5041802;28;20072;-68
2022/07/04 05:34:54;;;;;;;24.65;18.02;;;;;;;20.49;65.08;100481.75;5044306;28;20098;-72
2022/07/04 05:37:21;;;;;;;35.97;19.05;;;;;;;20.49;65.23;100476.06;5044740;28;20137;-72
2022/07/04 05:39:48;;;;;;;29.00;19.23;;;;;;;20.51;65.10;100479.44;5038186;28;20149;-72
2022/07/04 05:42:16;;;;;;;30.33;18.15;;;;;;;20.54;65.09;100477.88;5035794;28;20053;-72
2022/07/04 05:44:43;;;;;;;28.33;17.73;;;;;;;20.54;65.13;100477.88;5035044;28;20088;-72
2022/07/04 05:47:10;;;;;;;28.42;18.38;;;;;;;20.45;65.09;100463.78;5039670;28;20057;-73
2022/07/04 05:49:37;;;;;;;30.95;18.08;;;;;;;20.18;64.95;100419.00;5046568;28;20200;-72
2022/07/04 05:52:04;;;;;;;32.40;18.20;;;;;;;20.16;65.40;100412.84;5043460;28;20140;-73
2022/07/04 05:54:31;;;;;;;27.38;19.08;;;;;;;20.43;65.64;100440.59;5032615;28;20105;-72
2022/07/04 05:56:58;;;;;;;32.78;18.10;;;;;;;20.67;64.94;100467.41;5041324;28;20139;-73
2022/07/04 05:59:26;;;;;;;29.20;18.50;;;;;;;20.69;65.41;100482.06;5049308;28;20224;-72
2022/07/04 06:01:52;;;;;;;32.95;18.35;;;;;;;20.74;65.29;100471.31;5036926;28;20045;-72
2022/07/04 06:04:19;;;;;;;32.95;20.88;;;;;;;20.76;65.33;100465.31;5051011;28;20049;-72
2022/07/04 06:06:46;;;;;;;30.05;19.95;;;;;;;20.94;65.31;100485.78;5044869;28;20141;-73
2022/07/04 06:09:13;;;;;;;29.95;20.35;;;;;;;21.03;65.05;100481.66;5038656;28;20057;-70
2022/07/04 06:11:42;;;;;;;31.55;18.23;;;;;;;21.12;65.06;100481.53;5048553;28;20053;-71
2022/07/04 06:14:09;;;;;;;31.30;19.15;;;;;;;21.29;64.96;100486.16;5044436;28;20096;-73
2022/07/04 06:16:36;;;;;;;26.17;18.23;;;;;;;21.39;64.56;100468.69;5039710;28;20049;-72
2022/07/04 06:19:03;;;;;;;29.98;19.02;;;;;;;21.64;64.31;100480.03;5047775;28;20037;-72
2022/07/04 06:21:30;;;;;;;28.27;17.60;;;;;;;21.72;64.16;100490.44;5048251;28;20209;-72
2022/07/04 06:23:58;;;;;;;31.73;18.38;;;;;;;21.82;64.16;100495.63;5046829;28;20520;-73
2022/07/04 06:26:25;;;;;;;29.70;18.40;;;;;;;21.86;63.96;100505.09;5035533;28;20543;-72
2022/07/04 06:28:51;;;;;;;29.67;18.73;;;;;;;21.68;64.06;100476.13;5050876;28;20049;-73
2022/07/04 06:31:18;;;;;;;25.23;18.55;;;;;;;21.71;63.91;100494.47;5052937;28;20076;-74
2022/07/04 06:36:32;;;;;;;32.97;19.15;;;;;;;21.65;64.04;100491.03;5039141;28;20076;-73
2022/07/04 06:39:00;;;;;;;32.25;19.45;;;;;;;21.77;64.13;100512.94;5049275;28;20135;-72
2022/07/04 06:41:27;;;;;;;32.85;22.65;;;;;;;21.69;63.80;100505.38;5053056;28;20132;-72
2022/07/04 06:43:54;;;;;;;34.95;20.48;;;;;;;21.72;64.05;100516.84;5039258;28;20072;-72
2022/07/04 06:46:21;;;;;;;27.25;19.35;;;;;;;21.71;63.82;100497.31;5040764;28;20136;-74
2022/07/04 06:48:48;;;;;;;29.35;19.55;;;;;;;21.67;63.64;100500.03;5044493;28;20041;-71
2022/07/04 06:51:16;;;;;;;36.53;22.48;;;;;;;21.59;64.05;100501.00;5042341;28;20056;-72
2022/07/04 06:53:45;;;;;;;40.92;23.83;;;;;;;21.65;64.01;100512.97;5035389;28;20115;-71
2022/07/04 06:56:13;;;;;;;33.58;21.20;;;;;;;21.76;63.94;100522.66;5041067;28;20054;-72
2022/07/04 06:58:39;;;;;;;36.00;20.40;;;;;;;21.61;63.93;100520.53;5038612;28;20088;-70
2022/07/04 07:01:06;;;;;;;35.10;21.00;;;;;;;21.66;63.77;100531.66;5041604;28;20136;-71
2022/07/04 07:03:33;;;;;;;42.13;20.67;;;;;;;21.69;63.78;100522.41;5037082;28;20045;-72
2022/07/04 07:06:02;;;;;;;34.65;19.88;;;;;;;21.77;63.80;100524.28;5047765;28;20056;-71
2022/07/04 07:08:30;;;;;;;43.57;25.03;;;;;;;21.79;63.73;100521.94;5039637;28;20080;-71
2022/07/04 07:11:12;;;;;;;42.63;23.88;;;;;;;21.74;63.87;100514.50;5036709;28;20045;-71
2022/07/04 07:13:41;;;;;;;37.60;21.80;;;;;;;21.82;63.63;100515.53;5036695;28;20057;-72
2022/07/04 07:16:09;;;;;;;40.20;20.52;;;;;;;21.86;63.95;100525.00;5037909;28;20088;-71
2022/07/04 07:18:36;;;;;;;34.15;19.35;;;;;;;21.79;64.02;100529.63;5033837;28;20469;-71
2022/07/04 07:21:03;;;;;;;33.97;19.83;;;;;;;21.74;64.07;100520.19;5035664;28;20083;-73
2022/07/04 07:23:30;;;;;;;34.80;22.73;;;;;;;21.75;63.67;100538.88;5043037;28;20096;-72
2022/07/04 07:25:57;;;;;;;28.88;17.92;;;;;;;21.60;63.98;100507.50;5044994;28;20072;-72
2022/07/04 07:28:24;;;;;;;38.15;19.23;;;;;;;21.74;63.80;100528.69;5041091;28;20144;-72
2022/07/04 07:30:51;;;;;;;33.17;20.50;;;;;;;21.81;63.65;100541.47;5035220;28;20136;-72
2022/07/04 07:33:17;;;;;;;33.85;19.20;;;;;;;21.91;63.81;100552.34;5040491;28;20512;-70
2022/07/04 07:35:44;;;;;;;32.10;20.88;;;;;;;21.91;63.50;100546.66;5046715;28;20041;-70
2022/07/04 07:38:11;;;;;;;34.97;19.80;;;;;;;21.97;63.62;100557.44;5038882;28;20092;-70
2022/07/04 07:40:38;;;;;;;31.58;20.85;;;;;;;21.86;63.50;100527.03;5046499;28;20137;-70
2022/07/04 07:43:05;;;;;;;33.55;19.67;;;;;;;22.07;63.45;100558.13;5030367;28;20083;-70
2022/07/04 07:45:34;;;;;;;36.42;19.05;;;;;;;22.01;63.03;100535.63;5041037;28;20515;-69
2022/07/04 07:48:02;;;;;;;31.45;18.58;;;;;;;22.18;62.95;100547.94;5036774;28;20127;-70
2022/07/04 07:50:30;;;;;;;31.70;18.40;;;;;;;22.18;63.11;100551.63;5035865;28;20100;-70
2022/07/04 07:52:57;;;;;;;29.73;21.52;;;;;;;22.18;62.79;100548.78;5036531;28;20132;-70
2022/07/04 07:55:25;;;;;;;34.15;18.88;;;;;;;22.32;62.96;100545.53;5043033;28;20448;-69
2022/07/04 07:57:53;;;;;;;30.48;18.08;;;;;;;22.50;62.73;100550.94;5035367;28;20088;-69
2022/07/04 08:00:19;;;;;;;27.33;16.95;;;;;;;22.66;62.14;100561.16;5040037;28;20393;-69
2022/07/04 08:05:52;;;;;;;24.10;17.48;;;;;;;22.79;61.58;100547.72;5033806;28;20489;-71
2022/07/04 08:08:22;;;;;;;26.95;18.45;;;;;;;22.92;61.39;100569.28;5034391;28;20084;-71
2022/07/04 08:10:49;;;;;;;30.08;19.02;;;;;;;22.80;61.54;100554.22;5032559;28;20128;-71
2022/07/04 08:13:17;;;;;;;26.73;18.08;;;;;;;22.93;61.39;100587.19;5032912;28;20548;-69
2022/07/04 08:15:43;;;;;;;26.52;16.95;;;;;;;22.70;60.80;100542.19;5035167;28;20087;-70
2022/07/04 08:18:10;;;;;;;28.52;18.17;;;;;;;22.97;61.13;100587.28;5039051;28;20045;-67
2022/07/04 08:20:37;;;;;;;27.35;17.17;;;;;;;22.98;60.80;100581.25;5036874;28;20099;-68
2022/07/04 08:23:24;;;;;;;28.05;17.10;;;;;;;23.02;60.81;100587.03;5035655;28;20284;-70
2022/07/04 08:25:51;;;;;;;28.48;17.75;;;;;;;23.02;60.57;100589.88;5039236;28;20184;-69
2022/07/04 08:28:18;;;;;;;35.30;22.70;;;;;;;22.99;60.93;100573.53;5036566;28;20106;-70
2022/07/04 08:30:45;;;;;;;30.63;20.15;;;;;;;22.98;61.04;100572.69;5035788;28;20124;-70
2022/07/04 08:33:12;;;;;;;31.05;19.38;;;;;;;22.58;60.86;100512.97;5033902;28;20073;-69
2022/07/04 08:35:39;;;;;;;31.30;17.23;;;;;;;22.81;60.95;100539.66;5042024;28;20048;-69
2022/07/04 08:38:06;;;;;;;25.17;16.40;;;;;;;23.14;60.97;100586.94;5041200;28;20055;-69
2022/07/04 08:40:33;;;;;;;26.05;17.30;;;;;;;23.16;60.58;100568.31;5039079;28;20075;-67
2022/07/04 08:43:03;;;;;;;24.92;17.67;;;;;;;23.30;60.18;100584.97;5039104;28;20058;-68
2022/07/04 08:45:33;;;;;;;26.90;18.55;;;;;;;23.58;60.30;100573.47;5035175;28;20101;-68
2022/07/04 08:48:07;;;;;;;29.70;18.33;;;;;;;23.86;59.91;100558.28;5037659;28;20050;-68
2022/07/04 08:50:48;;;;;;;26.52;17.15;;;;;;;23.91;59.81;100560.03;5038077;28;20044;-67
2022/07/04 08:53:20;;;;;;;26.23;20.02;;;;;;;24.34;59.85;100565.53;5035478;28;20136;-67
2022/07/04 08:58:34;;;;;;;22.08;16.65;;;;;;;25.34;58.19;100563.91;5036408;28;20080;-68
2022/07/04 09:01:03;;;;;;;23.08;15.90;;;;;;;25.71;56.98;100563.34;5035727;28;20064;-68
2022/07/04 09:03:31;;;;;;;25.23;16.70;;;;;;;26.15;56.20;100566.50;5032370;28;20159;-68
2022/07/04 09:06:00;;;;;;;21.67;14.63;;;;;;;26.19;55.53;100490.09;5033820;28;20055;-68
2022/07/04 09:08:27;;;;;;;23.48;16.90;;;;;;;27.03;54.72;100555.75;5046604;28;20055;-68
2022/07/04 09:10:54;;;;;;;16.83;14.98;;;;;;;27.03;54.32;100524.22;5047522;28;20128;-68
2022/07/04 09:13:21;;;;;;;18.08;14.90;;;;;;;27.49;52.95;100546.81;5045512;28;20135;-69
2022/07/04 09:15:50;;;;;;;23.17;17.38;;;;;;;27.81;52.70;100553.69;5033157;28;20056;-69
2022/07/04 09:18:19;;;;;;;19.95;15.30;;;;;;;28.11;52.30;100546.91;5036293;28;20061;-68
2022/07/04 09:20:47;;;;;;;22.33;14.50;;;;;;;28.50;51.43;100555.75;5030848;28;20103;-68
2022/07/04 09:23:19;;;;;;;16.90;14.27;;;;;;;28.64;51.07;100552.13;5038049;28;20055;-68
2022/07/04 09:25:47;;;;;;;19.67;15.05;;;;;;;28.86;50.79;100555.94;5032219;28;20136;-69
2022/07/04 09:28:27;;;;;;;20.75;15.00;;;;;;;29.05;50.20;100546.94;5035608;28;20136;-68
2022/07/04 09:30:54;;;;;;;17.30;13.55;;;;;;;29.39;49.83;100543.72;5034253;28;20456;-68
2022/07/04 09:33:21;;;;;;;23.70;15.23;;;;;;;29.55;49.10;100531.81;5036812;28;20495;-69
2022/07/04 09:35:48;;;;;;;26.13;14.57;;;;;;;29.59;48.79;100540.44;5038703;28;20497;-69
2022/07/04 09:38:23;;;;;;;20.70;15.20;;;;;;;29.53;48.12;100520.72;5037717;28;20053;-69
2022/07/04 09:43:59;;;;;;;18.52;13.85;;;;;;;30.09;47.91;100523.97;5039597;28;20634;-69
2022/07/04 09:46:26;;;;;;;20.23;14.90;;;;;;;30.37;46.68;100543.25;5037725;28;20088;-68
2022/07/04 09:48:53;;;;;;;20.02;14.75;;;;;;;30.55;46.42;100551.00;5036389;28;20508;-68
2022/07/04 09:51:46;;;;;;;16.75;14.07;;;;;;;30.75;46.79;100536.94;5038843;28;20060;-68
2022/07/04 09:54:31;;;;;;;19.33;14.55;;;;;;;30.66;45.76;100494.13;5036962;28;20049;-68
2022/07/04 09:57:01;;;;;;;17.73;13.65;;;;;;;31.07;45.74;100534.69;5037408;28;20133;-67
2022/07/04 09:59:29;;;;;;;16.38;13.43;;;;;;;31.20;45.44;100535.03;5038449;28;20047;-69
2022/07/04 10:02:08;;;;;;;21.02;14.00;;;;;;;31.20;45.65;100529.25;5038009;28;20097;-68
2022/07/04 10:04:52;;;;;;;20.65;13.15;;;;;;;31.22;45.58;100521.03;5035922;28;20069;-69
2022/07/04 10:07:35;;;;;;;33.53;16.13;;;;;;;31.45;45.20;100539.81;5034252;28;20060;-69
2022/07/04 10:10:24;;;;;;;28.45;15.93;;;;;;;31.35;44.61;100541.53;5039515;28;20424;-69
2022/07/04 10:12:53;;;;;;;22.35;14.43;;;;;;;31.17;44.01;100522.28;5036737;28;20397;-68
2022/07/04 10:15:20;;;;;;;;;;;;;;;30.91;46.27;100535.22;5043970;28;20160;-69
2022/07/04 10:17:47;;;;;;;16.38;13.85;;;;;;;31.14;45.13;100545.38;5035198;28;19921;-69
2022/07/04 10:20:15;;;;;;;18.92;14.02;;;;;;;31.22;44.48;100544.09;5038603;28;20477;-69
2022/07/04 10:22:42;;;;;;;19.02;13.95;;;;;;;31.22;44.28;100538.34;5035869;28;20136;-70
2022/07/04 10:25:09;;;;;;;18.42;14.98;;;;;;;31.22;44.18;100525.97;5040240;28;20083;-71
2022/07/04 10:27:37;;;;;;;21.38;14.68;;;;;;;31.47;44.03;100543.13;5036854;28;20114;-66
2022/07/04 10:30:09;;;;;;;21.75;15.52;;;;;;;31.44;43.75;100538.19;5036143;28;20485;-68
2022/07/04 10:32:36;;;;;;;25.02;16.33;;;;;;;31.29;43.80;100549.00;5036740;28;20137;-67
2022/07/04 10:35:03;;;;;;;22.23;15.18;;;;;;;31.10;44.41;100533.84;5035861;28;20148;-67
2022/07/04 10:38:05;;;;;;;27.17;15.40;;;;;;;31.41;43.95;100544.81;5039843;28;20143;-69
2022/07/04 10:40:39;;;;;;;21.95;15.70;;;;;;;31.39;43.87;100534.53;5034709;28;20120;-67
2022/07/04 10:46:02;;;;;;;21.92;15.90;;;;;;;31.38;43.11;100558.88;5036554;28;20587;-68
2022/07/04 10:48:29;;;;;;;27.77;15.65;;;;;;;31.20;43.39;100563.88;5042984;28;20361;-68
2022/07/04 10:51:00;;;;;;;26.83;15.43;;;;;;;31.07;43.40;100537.59;5038198;28;20045;-68
2022/07/04 10:53:29;;;;;;;23.92;16.42;;;;;;;31.16;43.41;100554.44;5044013;28;20136;-68
2022/07/04 10:56:14;;;;;;;21.63;18.13;;;;;;;31.34;43.20;100557.22;5038299;28;20060;-68
2022/07/04 10:58:42;;;;;;;20.88;16.00;;;;;;;31.28;42.78;100551.06;5034309;28;20136;-67
2022/07/04 11:01:13;;;;;;;29.37;16.00;;;;;;;31.07;43.13;100551.19;5035342;28;20109;-68
2022/07/04 11:03:45;;;;;;;22.45;16.40;;;;;;;31.22;42.34;100549.88;5043425;28;20099;-68
2022/07/04 11:06:42;;;;;;;24.63;18.65;;;;;;;31.09;42.74;100545.84;5035273;28;20126;-67
2022/07/04 11:09:21;;;;;;;23.52;15.43;;;;;;;31.13;43.14;100558.16;5033460;28;20053;-67
2022/07/04 11:11:55;;;;;;;21.17;15.35;;;;;;;31.27;42.52;100549.41;5037772;28;20135;-68
2022/07/04 11:14:41;;;;;;;21.63;14.98;;;;;;;31.55;42.46;100550.47;5037408;28;20079;-68
2022/07/04 11:17:10;;;;;;;22.38;15.57;;;;;;;31.64;41.82;100547.94;5036408;28;20135;-68
2022/07/04 11:19:43;;;;;;;17.55;14.95;;;;;;;31.60;41.79;100561.56;5032436;28;20106;-68
2022/07/04 11:22:11;;;;;;;22.95;17.50;;;;;;;31.43;42.37;100559.66;5043874;28;20507;-67
2022/07/04 11:24:39;;;;;;;26.15;20.10;;;;;;;31.42;41.99;100558.84;5051423;28;20136;-68
2022/07/04 11:27:10;;;;;;;25.55;17.23;;;;;;;31.48;41.64;100556.28;5037771;28;20590;-68
2022/07/04 11:29:37;;;;;;;20.30;15.25;;;;;;;31.61;41.45;100563.22;5034001;28;20123;-67
2022/07/04 11:32:07;;;;;;;17.85;15.95;;;;;;;31.63;41.94;100547.09;5034348;28;20133;-69
2022/07/04 11:34:34;;;;;;;17.38;15.23;;;;;;;31.76;41.56;100521.44;5036149;28;20432;-68
2022/07/04 11:37:03;;;;;;;19.38;14.75;;;;;;;32.19;41.11;100538.34;5032011;28;20415;-67